sensor_id;sensor_type;location;lat;lon;timestamp;temperature;humidity
49829;DHT22;35723;51.194;5.112;2023-04-28T00:00:53;12.70;99.90
49829;DHT22;35723;51.194;5.112;2023-04-28T00:03:19;12.70;99.90
49829;DHT22;35723;51.194;5.112;2023-04-28T00:05:44;12.70;99.90
49829;DHT22;35723;51.194;5.112;2023-04-28T00:08:11;12.70;99.90
49829;DHT22;35723;51.194;5.112;2023-04-28T00:10:36;12.70;99.90
49829;DHT22;35723;51.194;5.112;2023-04-28T00:13:02;12.60;99.90
49829;DHT22;35723;51.194;5.112;2023-04-28T00:15:28;12.60;99.90
49829;DHT22;35723;51.194;5.112;2023-04-28T00:17:53;12.60;99.90
49829;DHT22;35723;51.194;5.112;2023-04-28T00:20:19;12.60;99.90
49829;DHT22;35723;51.194;5.112;2023-04-28T00:22:45;12.50;99.90
49829;DHT22;35723;51.194;5.112;2023-04-28T00:25:11;12.50;99.90
49829;DHT22;35723;51.194;5.112;2023-04-28T00:27:37;12.50;99.90
49829;DHT22;35723;51.194;5.112;2023-04-28T00:30:02;12.50;99.90
49829;DHT22;35723;51.194;5.112;2023-04-28T00:32:28;12.50;99.90
49829;DHT22;35723;51.194;5.112;2023-04-28T00:34:56;12.50;99.90
49829;DHT22;35723;51.194;5.112;2023-04-28T00:37:21;12.50;99.90
49829;DHT22;35723;51.194;5.112;2023-04-28T00:39:47;12.40;99.90
49829;DHT22;35723;51.194;5.112;2023-04-28T00:42:13;12.30;99.90
49829;DHT22;35723;51.194;5.112;2023-04-28T00:44:39;12.30;99.90
49829;DHT22;35723;51.194;5.112;2023-04-28T00:47:07;12.40;99.90
49829;DHT22;35723;51.194;5.112;2023-04-28T00:49:34;12.40;99.90
49829;DHT22;35723;51.194;5.112;2023-04-28T00:52:06;12.40;99.90
49829;DHT22;35723;51.194;5.112;2023-04-28T00:54:32;12.40;99.90
49829;DHT22;35723;51.194;5.112;2023-04-28T00:56:59;12.30;99.90
49829;DHT22;35723;51.194;5.112;2023-04-28T00:59:28;12.40;99.90
49829;DHT22;35723;51.194;5.112;2023-04-28T01:01:54;12.30;99.90
49829;DHT22;35723;51.194;5.112;2023-04-28T01:04:21;12.30;99.90
49829;DHT22;35723;51.194;5.112;2023-04-28T01:06:48;12.30;99.90
49829;DHT22;35723;51.194;5.112;2023-04-28T01:09:15;12.40;99.90
49829;DHT22;35723;51.194;5.112;2023-04-28T01:11:41;12.40;99.90
49829;DHT22;35723;51.194;5.112;2023-04-28T01:14:06;12.40;99.90
49829;DHT22;35723;51.194;5.112;2023-04-28T01:16:33;12.40;99.90
49829;DHT22;35723;51.194;5.112;2023-04-28T01:18:59;12.40;99.90
49829;DHT22;35723;51.194;5.112;2023-04-28T01:21:32;12.40;99.90
49829;DHT22;35723;51.194;5.112;2023-04-28T01:23:58;12.40;99.90
49829;DHT22;35723;51.194;5.112;2023-04-28T01:26:24;12.40;99.90
49829;DHT22;35723;51.194;5.112;2023-04-28T01:28:50;12.40;99.90
49829;DHT22;35723;51.194;5.112;2023-04-28T01:31:16;12.50;99.90
49829;DHT22;35723;51.194;5.112;2023-04-28T01:33:41;12.40;99.90
49829;DHT22;35723;51.194;5.112;2023-04-28T01:36:07;12.40;99.90
49829;DHT22;35723;51.194;5.112;2023-04-28T01:38:33;12.40;99.90
49829;DHT22;35723;51.194;5.112;2023-04-28T01:40:59;12.40;99.90
49829;DHT22;35723;51.194;5.112;2023-04-28T01:43:27;12.40;99.90
49829;DHT22;35723;51.194;5.112;2023-04-28T01:45:52;12.40;99.90
49829;DHT22;35723;51.194;5.112;2023-04-28T01:48:18;12.40;99.90
49829;DHT22;35723;51.194;5.112;2023-04-28T01:50:43;12.50;99.90
49829;DHT22;35723;51.194;5.112;2023-04-28T01:53:09;12.50;99.90
49829;DHT22;35723;51.194;5.112;2023-04-28T01:55:37;12.40;99.90
49829;DHT22;35723;51.194;5.112;2023-04-28T01:58:02;12.40;99.90
49829;DHT22;35723;51.194;5.112;2023-04-28T02:00:28;12.40;99.90
49829;DHT22;35723;51.194;5.112;2023-04-28T02:02:54;12.40;99.90
49829;DHT22;35723;51.194;5.112;2023-04-28T02:05:19;12.30;99.90
49829;DHT22;35723;51.194;5.112;2023-04-28T02:07:45;12.30;99.90
49829;DHT22;35723;51.194;5.112;2023-04-28T02:10:11;12.30;99.90
49829;DHT22;35723;51.194;5.112;2023-04-28T02:12:37;12.30;99.90
49829;DHT22;35723;51.194;5.112;2023-04-28T02:15:03;12.30;99.90
49829;DHT22;35723;51.194;5.112;2023-04-28T02:17:29;12.30;99.90
49829;DHT22;35723;51.194;5.112;2023-04-28T02:19:55;12.20;99.90
49829;DHT22;35723;51.194;5.112;2023-04-28T02:22:21;12.20;99.90
49829;DHT22;35723;51.194;5.112;2023-04-28T02:24:47;12.20;99.90
49829;DHT22;35723;51.194;5.112;2023-04-28T02:27:12;12.20;99.90
49829;DHT22;35723;51.194;5.112;2023-04-28T02:29:38;12.20;99.90
49829;DHT22;35723;51.194;5.112;2023-04-28T02:32:04;12.20;99.90
49829;DHT22;35723;51.194;5.112;2023-04-28T02:34:29;12.10;99.90
49829;DHT22;35723;51.194;5.112;2023-04-28T02:36:55;12.10;99.90
49829;DHT22;35723;51.194;5.112;2023-04-28T02:39:21;12.10;99.90
49829;DHT22;35723;51.194;5.112;2023-04-28T02:41:49;12.10;99.90
49829;DHT22;35723;51.194;5.112;2023-04-28T02:44:16;12.10;99.90
49829;DHT22;35723;51.194;5.112;2023-04-28T02:46:42;12.10;99.90
49829;DHT22;35723;51.194;5.112;2023-04-28T02:49:07;12.10;99.90
49829;DHT22;35723;51.194;5.112;2023-04-28T02:51:33;12.10;99.90
49829;DHT22;35723;51.194;5.112;2023-04-28T02:53:59;12.20;99.90
49829;DHT22;35723;51.194;5.112;2023-04-28T02:56:25;12.10;99.90
49829;DHT22;35723;51.194;5.112;2023-04-28T02:58:51;12.20;99.90
49829;DHT22;35723;51.194;5.112;2023-04-28T03:01:17;12.20;99.90
49829;DHT22;35723;51.194;5.112;2023-04-28T03:03:43;12.10;99.90
49829;DHT22;35723;51.194;5.112;2023-04-28T03:06:08;12.10;99.90
49829;DHT22;35723;51.194;5.112;2023-04-28T03:08:34;12.10;99.90
49829;DHT22;35723;51.194;5.112;2023-04-28T03:10:59;12.20;99.90
49829;DHT22;35723;51.194;5.112;2023-04-28T03:13:25;12.10;99.90
49829;DHT22;35723;51.194;5.112;2023-04-28T03:15:51;12.10;99.90
49829;DHT22;35723;51.194;5.112;2023-04-28T03:18:17;12.10;99.90
49829;DHT22;35723;51.194;5.112;2023-04-28T03:20:43;12.10;99.90
49829;DHT22;35723;51.194;5.112;2023-04-28T03:23:09;12.20;99.90
49829;DHT22;35723;51.194;5.112;2023-04-28T03:25:35;12.10;99.90
49829;DHT22;35723;51.194;5.112;2023-04-28T03:28:00;12.10;99.90
49829;DHT22;35723;51.194;5.112;2023-04-28T03:30:26;12.20;99.90
49829;DHT22;35723;51.194;5.112;2023-04-28T03:32:52;12.20;99.90
49829;DHT22;35723;51.194;5.112;2023-04-28T03:35:17;12.10;99.90
49829;DHT22;35723;51.194;5.112;2023-04-28T03:37:43;12.20;99.90
49829;DHT22;35723;51.194;5.112;2023-04-28T03:40:09;12.20;99.90
49829;DHT22;35723;51.194;5.112;2023-04-28T03:42:35;12.20;99.90
49829;DHT22;35723;51.194;5.112;2023-04-28T03:45:01;12.20;99.90
49829;DHT22;35723;51.194;5.112;2023-04-28T03:47:26;12.20;99.90
49829;DHT22;35723;51.194;5.112;2023-04-28T03:49:52;12.20;99.90
49829;DHT22;35723;51.194;5.112;2023-04-28T03:52:18;12.20;99.90
49829;DHT22;35723;51.194;5.112;2023-04-28T03:54:44;12.20;99.90
49829;DHT22;35723;51.194;5.112;2023-04-28T03:57:10;12.20;99.90
49829;DHT22;35723;51.194;5.112;2023-04-28T03:59:36;12.20;99.90
49829;DHT22;35723;51.194;5.112;2023-04-28T04:02:02;12.20;99.90
49829;DHT22;35723;51.194;5.112;2023-04-28T04:04:28;12.20;99.90
49829;DHT22;35723;51.194;5.112;2023-04-28T04:06:54;12.30;99.90
49829;DHT22;35723;51.194;5.112;2023-04-28T04:09:20;12.30;99.90
49829;DHT22;35723;51.194;5.112;2023-04-28T04:11:46;12.20;99.90
49829;DHT22;35723;51.194;5.112;2023-04-28T04:14:11;12.20;99.90
49829;DHT22;35723;51.194;5.112;2023-04-28T04:16:37;12.30;99.90
49829;DHT22;35723;51.194;5.112;2023-04-28T04:19:02;12.30;99.90
49829;DHT22;35723;51.194;5.112;2023-04-28T04:21:28;12.20;99.90
49829;DHT22;35723;51.194;5.112;2023-04-28T04:23:54;12.20;99.90
49829;DHT22;35723;51.194;5.112;2023-04-28T04:26:20;12.20;99.90
49829;DHT22;35723;51.194;5.112;2023-04-28T04:28:46;12.30;99.90
49829;DHT22;35723;51.194;5.112;2023-04-28T04:31:11;12.30;99.90
49829;DHT22;35723;51.194;5.112;2023-04-28T04:33:37;12.30;99.90
49829;DHT22;35723;51.194;5.112;2023-04-28T04:36:03;12.20;99.90
49829;DHT22;35723;51.194;5.112;2023-04-28T04:38:29;12.20;99.90
49829;DHT22;35723;51.194;5.112;2023-04-28T04:40:55;12.20;99.90
49829;DHT22;35723;51.194;5.112;2023-04-28T04:43:21;12.30;99.90
49829;DHT22;35723;51.194;5.112;2023-04-28T04:45:46;12.30;99.90
49829;DHT22;35723;51.194;5.112;2023-04-28T04:48:13;12.20;99.90
49829;DHT22;35723;51.194;5.112;2023-04-28T04:50:40;12.20;99.90
49829;DHT22;35723;51.194;5.112;2023-04-28T04:53:05;12.30;99.90
49829;DHT22;35723;51.194;5.112;2023-04-28T04:55:31;12.20;99.90
49829;DHT22;35723;51.194;5.112;2023-04-28T04:57:57;12.20;99.90
49829;DHT22;35723;51.194;5.112;2023-04-28T05:00:22;12.20;99.90
49829;DHT22;35723;51.194;5.112;2023-04-28T05:02:48;12.30;99.90
49829;DHT22;35723;51.194;5.112;2023-04-28T05:05:14;12.20;99.90
49829;DHT22;35723;51.194;5.112;2023-04-28T05:07:39;12.20;99.90
49829;DHT22;35723;51.194;5.112;2023-04-28T05:10:05;12.20;99.90
49829;DHT22;35723;51.194;5.112;2023-04-28T05:12:31;12.20;99.90
49829;DHT22;35723;51.194;5.112;2023-04-28T05:14:57;12.20;99.90
49829;DHT22;35723;51.194;5.112;2023-04-28T05:17:23;12.20;99.90
49829;DHT22;35723;51.194;5.112;2023-04-28T05:19:49;12.20;99.90
49829;DHT22;35723;51.194;5.112;2023-04-28T05:22:15;12.20;99.90
49829;DHT22;35723;51.194;5.112;2023-04-28T05:24:40;12.20;99.90
49829;DHT22;35723;51.194;5.112;2023-04-28T05:27:06;12.20;99.90
49829;DHT22;35723;51.194;5.112;2023-04-28T05:29:31;12.20;99.90
49829;DHT22;35723;51.194;5.112;2023-04-28T05:31:57;12.20;99.90
49829;DHT22;35723;51.194;5.112;2023-04-28T05:34:23;12.20;99.90
49829;DHT22;35723;51.194;5.112;2023-04-28T05:36:49;12.20;99.90
49829;DHT22;35723;51.194;5.112;2023-04-28T05:39:16;12.20;99.90
49829;DHT22;35723;51.194;5.112;2023-04-28T05:41:41;12.20;99.90
49829;DHT22;35723;51.194;5.112;2023-04-28T05:44:07;12.20;99.90
49829;DHT22;35723;51.194;5.112;2023-04-28T05:46:33;12.30;99.90
49829;DHT22;35723;51.194;5.112;2023-04-28T05:48:59;12.30;99.90
49829;DHT22;35723;51.194;5.112;2023-04-28T05:51:25;12.30;99.90
49829;DHT22;35723;51.194;5.112;2023-04-28T05:53:51;12.30;99.90
49829;DHT22;35723;51.194;5.112;2023-04-28T05:56:17;12.30;99.90
49829;DHT22;35723;51.194;5.112;2023-04-28T05:58:42;12.30;99.90
49829;DHT22;35723;51.194;5.112;2023-04-28T06:01:12;12.40;99.90
49829;DHT22;35723;51.194;5.112;2023-04-28T06:03:38;12.30;99.90
49829;DHT22;35723;51.194;5.112;2023-04-28T06:06:06;12.40;99.90
49829;DHT22;35723;51.194;5.112;2023-04-28T06:08:32;12.40;99.90
49829;DHT22;35723;51.194;5.112;2023-04-28T06:10:58;12.40;99.90
49829;DHT22;35723;51.194;5.112;2023-04-28T06:13:23;12.40;99.90
49829;DHT22;35723;51.194;5.112;2023-04-28T06:15:49;12.40;99.90
49829;DHT22;35723;51.194;5.112;2023-04-28T06:18:15;12.40;99.90
49829;DHT22;35723;51.194;5.112;2023-04-28T06:20:41;12.50;99.90
49829;DHT22;35723;51.194;5.112;2023-04-28T06:23:06;12.50;99.90
49829;DHT22;35723;51.194;5.112;2023-04-28T06:25:34;12.50;99.90
49829;DHT22;35723;51.194;5.112;2023-04-28T06:28:00;12.50;99.90
49829;DHT22;35723;51.194;5.112;2023-04-28T06:30:26;12.50;99.90
49829;DHT22;35723;51.194;5.112;2023-04-28T06:32:52;12.50;99.90
49829;DHT22;35723;51.194;5.112;2023-04-28T06:35:17;12.60;99.90
49829;DHT22;35723;51.194;5.112;2023-04-28T06:37:43;12.60;99.90
49829;DHT22;35723;51.194;5.112;2023-04-28T06:40:09;12.60;99.90
49829;DHT22;35723;51.194;5.112;2023-04-28T06:42:35;12.60;99.90
49829;DHT22;35723;51.194;5.112;2023-04-28T06:45:01;12.70;99.90
49829;DHT22;35723;51.194;5.112;2023-04-28T06:47:27;12.70;99.90
49829;DHT22;35723;51.194;5.112;2023-04-28T06:49:53;12.70;99.90
49829;DHT22;35723;51.194;5.112;2023-04-28T06:52:20;12.80;99.90
49829;DHT22;35723;51.194;5.112;2023-04-28T06:54:49;12.80;99.90
49829;DHT22;35723;51.194;5.112;2023-04-28T06:57:16;12.80;99.90
49829;DHT22;35723;51.194;5.112;2023-04-28T06:59:41;12.80;99.90
49829;DHT22;35723;51.194;5.112;2023-04-28T07:02:09;12.80;99.90
49829;DHT22;35723;51.194;5.112;2023-04-28T07:04:35;12.90;99.90
49829;DHT22;35723;51.194;5.112;2023-04-28T07:07:01;12.90;99.90
49829;DHT22;35723;51.194;5.112;2023-04-28T07:09:27;12.90;99.90
49829;DHT22;35723;51.194;5.112;2023-04-28T07:11:52;12.90;99.90
49829;DHT22;35723;51.194;5.112;2023-04-28T07:14:18;12.90;99.90
49829;DHT22;35723;51.194;5.112;2023-04-28T07:16:44;13.00;99.90
49829;DHT22;35723;51.194;5.112;2023-04-28T07:19:09;13.00;99.90
49829;DHT22;35723;51.194;5.112;2023-04-28T07:21:35;13.10;99.90
49829;DHT22;35723;51.194;5.112;2023-04-28T07:24:01;13.10;99.90
49829;DHT22;35723;51.194;5.112;2023-04-28T07:26:27;13.10;99.90
49829;DHT22;35723;51.194;5.112;2023-04-28T07:28:52;13.20;99.90
49829;DHT22;35723;51.194;5.112;2023-04-28T07:31:18;13.10;99.90
49829;DHT22;35723;51.194;5.112;2023-04-28T07:33:44;13.10;99.90
49829;DHT22;35723;51.194;5.112;2023-04-28T07:36:10;13.10;99.90
49829;DHT22;35723;51.194;5.112;2023-04-28T07:38:36;13.20;99.90
49829;DHT22;35723;51.194;5.112;2023-04-28T07:41:02;13.20;99.90
49829;DHT22;35723;51.194;5.112;2023-04-28T07:43:28;13.40;99.90
49829;DHT22;35723;51.194;5.112;2023-04-28T07:45:54;13.40;99.90
49829;DHT22;35723;51.194;5.112;2023-04-28T07:48:20;13.40;99.90
49829;DHT22;35723;51.194;5.112;2023-04-28T07:50:45;13.40;99.90
49829;DHT22;35723;51.194;5.112;2023-04-28T07:53:11;13.40;99.90
49829;DHT22;35723;51.194;5.112;2023-04-28T07:55:37;13.40;99.90
49829;DHT22;35723;51.194;5.112;2023-04-28T07:58:07;13.50;99.90
49829;DHT22;35723;51.194;5.112;2023-04-28T08:00:33;13.50;99.90
49829;DHT22;35723;51.194;5.112;2023-04-28T08:02:59;13.60;99.90
49829;DHT22;35723;51.194;5.112;2023-04-28T08:05:24;13.60;99.90
49829;DHT22;35723;51.194;5.112;2023-04-28T08:07:50;13.60;99.90
49829;DHT22;35723;51.194;5.112;2023-04-28T08:10:16;13.60;99.90
49829;DHT22;35723;51.194;5.112;2023-04-28T08:12:41;13.70;99.90
49829;DHT22;35723;51.194;5.112;2023-04-28T08:15:09;13.80;99.90
49829;DHT22;35723;51.194;5.112;2023-04-28T08:17:35;13.90;99.90
49829;DHT22;35723;51.194;5.112;2023-04-28T08:20:01;13.90;99.90
49829;DHT22;35723;51.194;5.112;2023-04-28T08:22:26;13.90;99.90
49829;DHT22;35723;51.194;5.112;2023-04-28T08:24:52;13.90;99.90
49829;DHT22;35723;51.194;5.112;2023-04-28T08:27:18;14.00;99.90
49829;DHT22;35723;51.194;5.112;2023-04-28T08:29:43;14.00;99.90
49829;DHT22;35723;51.194;5.112;2023-04-28T08:32:09;14.00;99.90
49829;DHT22;35723;51.194;5.112;2023-04-28T08:34:35;14.00;99.90
49829;DHT22;35723;51.194;5.112;2023-04-28T08:37:00;14.00;99.90
49829;DHT22;35723;51.194;5.112;2023-04-28T08:39:27;14.10;99.90
49829;DHT22;35723;51.194;5.112;2023-04-28T08:41:53;14.10;99.90
49829;DHT22;35723;51.194;5.112;2023-04-28T08:44:19;14.20;99.90
49829;DHT22;35723;51.194;5.112;2023-04-28T08:46:45;14.20;99.90
49829;DHT22;35723;51.194;5.112;2023-04-28T08:49:16;14.20;99.90
49829;DHT22;35723;51.194;5.112;2023-04-28T08:51:49;14.30;99.90
49829;DHT22;35723;51.194;5.112;2023-04-28T08:54:16;14.40;99.90
49829;DHT22;35723;51.194;5.112;2023-04-28T08:56:42;14.40;99.90
49829;DHT22;35723;51.194;5.112;2023-04-28T08:59:12;14.40;99.90
49829;DHT22;35723;51.194;5.112;2023-04-28T09:01:42;14.50;99.90
49829;DHT22;35723;51.194;5.112;2023-04-28T09:04:08;14.50;99.90
49829;DHT22;35723;51.194;5.112;2023-04-28T09:06:36;14.50;99.90
49829;DHT22;35723;51.194;5.112;2023-04-28T09:09:21;14.60;99.90
49829;DHT22;35723;51.194;5.112;2023-04-28T09:12:13;14.60;99.90
49829;DHT22;35723;51.194;5.112;2023-04-28T09:14:39;14.60;99.90
49829;DHT22;35723;51.194;5.112;2023-04-28T09:17:12;14.60;99.90
49829;DHT22;35723;51.194;5.112;2023-04-28T09:19:39;14.60;99.90
49829;DHT22;35723;51.194;5.112;2023-04-28T09:22:07;14.60;99.90
49829;DHT22;35723;51.194;5.112;2023-04-28T09:24:42;14.60;99.90
49829;DHT22;35723;51.194;5.112;2023-04-28T09:27:09;14.60;99.90
49829;DHT22;35723;51.194;5.112;2023-04-28T09:29:37;14.60;99.90
49829;DHT22;35723;51.194;5.112;2023-04-28T09:32:15;14.70;99.90
49829;DHT22;35723;51.194;5.112;2023-04-28T09:34:45;14.80;99.90
49829;DHT22;35723;51.194;5.112;2023-04-28T09:37:19;14.90;99.90
49829;DHT22;35723;51.194;5.112;2023-04-28T09:39:47;15.00;99.90
49829;DHT22;35723;51.194;5.112;2023-04-28T09:42:37;15.00;99.90
49829;DHT22;35723;51.194;5.112;2023-04-28T09:45:08;15.00;99.90
49829;DHT22;35723;51.194;5.112;2023-04-28T09:47:42;15.10;99.90
49829;DHT22;35723;51.194;5.112;2023-04-28T09:50:10;15.00;99.90
49829;DHT22;35723;51.194;5.112;2023-04-28T09:52:40;15.00;99.90
49829;DHT22;35723;51.194;5.112;2023-04-28T09:55:07;15.10;99.90
49829;DHT22;35723;51.194;5.112;2023-04-28T09:57:34;15.10;99.90
49829;DHT22;35723;51.194;5.112;2023-04-28T10:00:00;15.10;99.90
49829;DHT22;35723;51.194;5.112;2023-04-28T10:02:27;15.20;99.90
49829;DHT22;35723;51.194;5.112;2023-04-28T10:04:53;15.30;99.90
49829;DHT22;35723;51.194;5.112;2023-04-28T10:07:20;15.30;99.90
49829;DHT22;35723;51.194;5.112;2023-04-28T10:09:47;15.40;99.90
49829;DHT22;35723;51.194;5.112;2023-04-28T10:12:15;15.50;99.90
49829;DHT22;35723;51.194;5.112;2023-04-28T10:14:42;15.50;99.90
49829;DHT22;35723;51.194;5.112;2023-04-28T10:17:10;15.50;99.90
49829;DHT22;35723;51.194;5.112;2023-04-28T10:19:36;15.40;99.90
49829;DHT22;35723;51.194;5.112;2023-04-28T10:27:14;15.50;99.90
49829;DHT22;35723;51.194;5.112;2023-04-28T10:29:41;15.50;99.90
49829;DHT22;35723;51.194;5.112;2023-04-28T10:32:14;15.50;99.90
49829;DHT22;35723;51.194;5.112;2023-04-28T10:34:40;15.50;99.90
49829;DHT22;35723;51.194;5.112;2023-04-28T10:37:05;15.60;99.90
49829;DHT22;35723;51.194;5.112;2023-04-28T10:39:31;15.80;99.90
49829;DHT22;35723;51.194;5.112;2023-04-28T10:41:57;15.90;99.90
49829;DHT22;35723;51.194;5.112;2023-04-28T10:47:01;16.00;99.90
49829;DHT22;35723;51.194;5.112;2023-04-28T11:00:52;16.10;99.90
49829;DHT22;35723;51.194;5.112;2023-04-28T11:06:30;16.20;99.90
49829;DHT22;35723;51.194;5.112;2023-04-28T11:17:01;16.20;99.90
49829;DHT22;35723;51.194;5.112;2023-04-28T11:21:55;16.20;99.90
49829;DHT22;35723;51.194;5.112;2023-04-28T11:24:22;16.20;99.90
49829;DHT22;35723;51.194;5.112;2023-04-28T11:26:50;16.20;99.90
49829;DHT22;35723;51.194;5.112;2023-04-28T11:29:17;16.30;99.90
49829;DHT22;35723;51.194;5.112;2023-04-28T11:31:49;16.30;99.90
49829;DHT22;35723;51.194;5.112;2023-04-28T11:34:19;16.40;99.90
49829;DHT22;35723;51.194;5.112;2023-04-28T11:36:48;16.30;99.90
49829;DHT22;35723;51.194;5.112;2023-04-28T11:39:14;16.40;99.90
49829;DHT22;35723;51.194;5.112;2023-04-28T11:41:42;16.40;99.90
49829;DHT22;35723;51.194;5.112;2023-04-28T11:49:11;16.30;99.90
49829;DHT22;35723;51.194;5.112;2023-04-28T11:51:37;16.40;99.90
49829;DHT22;35723;51.194;5.112;2023-04-28T11:54:05;16.40;99.90
49829;DHT22;35723;51.194;5.112;2023-04-28T11:56:42;16.40;99.90
49829;DHT22;35723;51.194;5.112;2023-04-28T11:59:09;16.40;99.90
49829;DHT22;35723;51.194;5.112;2023-04-28T12:01:50;16.40;99.90
49829;DHT22;35723;51.194;5.112;2023-04-28T12:04:32;16.30;99.90
49829;DHT22;35723;51.194;5.112;2023-04-28T12:09:30;16.30;99.90
49829;DHT22;35723;51.194;5.112;2023-04-28T12:11:58;16.40;99.90
49829;DHT22;35723;51.194;5.112;2023-04-28T12:14:25;16.30;99.90
49829;DHT22;35723;51.194;5.112;2023-04-28T12:16:51;16.40;99.90
49829;DHT22;35723;51.194;5.112;2023-04-28T12:19:17;16.40;99.90
49829;DHT22;35723;51.194;5.112;2023-04-28T12:21:57;16.50;99.90
49829;DHT22;35723;51.194;5.112;2023-04-28T12:24:23;16.60;99.90
49829;DHT22;35723;51.194;5.112;2023-04-28T12:26:51;16.60;99.90
49829;DHT22;35723;51.194;5.112;2023-04-28T12:29:37;16.50;99.90
49829;DHT22;35723;51.194;5.112;2023-04-28T12:32:05;16.50;99.90
49829;DHT22;35723;51.194;5.112;2023-04-28T12:34:31;16.40;99.90
49829;DHT22;35723;51.194;5.112;2023-04-28T12:37:01;16.50;99.90
49829;DHT22;35723;51.194;5.112;2023-04-28T12:39:27;16.60;99.90
49829;DHT22;35723;51.194;5.112;2023-04-28T12:41:53;16.60;99.90
49829;DHT22;35723;51.194;5.112;2023-04-28T12:44:20;16.50;99.90
49829;DHT22;35723;51.194;5.112;2023-04-28T12:46:47;16.50;99.90
49829;DHT22;35723;51.194;5.112;2023-04-28T12:49:13;16.50;99.90
49829;DHT22;35723;51.194;5.112;2023-04-28T12:51:40;16.60;99.90
49829;DHT22;35723;51.194;5.112;2023-04-28T12:54:06;16.40;99.90
49829;DHT22;35723;51.194;5.112;2023-04-28T12:56:32;16.50;99.90
49829;DHT22;35723;51.194;5.112;2023-04-28T12:58:58;16.40;99.90
49829;DHT22;35723;51.194;5.112;2023-04-28T13:01:24;16.50;99.90
49829;DHT22;35723;51.194;5.112;2023-04-28T13:03:51;16.50;99.90
49829;DHT22;35723;51.194;5.112;2023-04-28T13:06:17;16.40;99.90
49829;DHT22;35723;51.194;5.112;2023-04-28T13:08:43;16.40;99.90
49829;DHT22;35723;51.194;5.112;2023-04-28T13:11:09;16.40;99.90
49829;DHT22;35723;51.194;5.112;2023-04-28T13:13:35;16.40;99.90
49829;DHT22;35723;51.194;5.112;2023-04-28T13:16:01;16.40;99.90
49829;DHT22;35723;51.194;5.112;2023-04-28T13:18:31;16.30;99.90
49829;DHT22;35723;51.194;5.112;2023-04-28T13:20:57;16.30;99.90
49829;DHT22;35723;51.194;5.112;2023-04-28T13:23:23;16.20;99.90
49829;DHT22;35723;51.194;5.112;2023-04-28T13:25:49;16.30;99.90
49829;DHT22;35723;51.194;5.112;2023-04-28T13:28:15;16.30;99.90
49829;DHT22;35723;51.194;5.112;2023-04-28T13:30:41;16.20;99.90
49829;DHT22;35723;51.194;5.112;2023-04-28T13:33:06;16.30;99.90
49829;DHT22;35723;51.194;5.112;2023-04-28T13:35:32;16.30;99.90
49829;DHT22;35723;51.194;5.112;2023-04-28T13:37:58;16.40;99.90
49829;DHT22;35723;51.194;5.112;2023-04-28T13:40:27;16.30;99.90
49829;DHT22;35723;51.194;5.112;2023-04-28T13:42:53;16.30;99.90
49829;DHT22;35723;51.194;5.112;2023-04-28T13:45:19;16.30;99.90
49829;DHT22;35723;51.194;5.112;2023-04-28T13:47:45;16.30;99.90
49829;DHT22;35723;51.194;5.112;2023-04-28T13:50:10;16.40;99.90
49829;DHT22;35723;51.194;5.112;2023-04-28T13:52:36;16.40;99.90
49829;DHT22;35723;51.194;5.112;2023-04-28T13:55:02;16.40;99.90
49829;DHT22;35723;51.194;5.112;2023-04-28T13:57:28;16.40;99.90
49829;DHT22;35723;51.194;5.112;2023-04-28T13:59:53;16.40;99.90
49829;DHT22;35723;51.194;5.112;2023-04-28T14:02:19;16.20;99.90
49829;DHT22;35723;51.194;5.112;2023-04-28T14:04:45;16.30;99.90
49829;DHT22;35723;51.194;5.112;2023-04-28T14:07:13;16.20;99.90
49829;DHT22;35723;51.194;5.112;2023-04-28T14:09:39;16.20;99.90
49829;DHT22;35723;51.194;5.112;2023-04-28T14:12:05;16.20;99.90
49829;DHT22;35723;51.194;5.112;2023-04-28T14:14:31;16.30;99.90
49829;DHT22;35723;51.194;5.112;2023-04-28T14:16:57;16.20;99.90
49829;DHT22;35723;51.194;5.112;2023-04-28T14:19:23;16.20;99.90
49829;DHT22;35723;51.194;5.112;2023-04-28T14:21:51;16.20;99.90
49829;DHT22;35723;51.194;5.112;2023-04-28T14:24:17;15.90;99.90
49829;DHT22;35723;51.194;5.112;2023-04-28T14:26:44;15.90;99.90
49829;DHT22;35723;51.194;5.112;2023-04-28T14:29:10;15.90;99.90
49829;DHT22;35723;51.194;5.112;2023-04-28T14:31:36;15.90;99.90
49829;DHT22;35723;51.194;5.112;2023-04-28T14:34:02;16.00;99.90
49829;DHT22;35723;51.194;5.112;2023-04-28T14:36:30;16.10;99.90
49829;DHT22;35723;51.194;5.112;2023-04-28T14:38:58;16.20;99.90
49829;DHT22;35723;51.194;5.112;2023-04-28T14:41:24;16.20;99.90
49829;DHT22;35723;51.194;5.112;2023-04-28T14:43:50;16.10;99.90
49829;DHT22;35723;51.194;5.112;2023-04-28T14:46:16;16.00;99.90
49829;DHT22;35723;51.194;5.112;2023-04-28T14:48:44;16.00;99.90
49829;DHT22;35723;51.194;5.112;2023-04-28T14:51:09;15.90;99.90
49829;DHT22;35723;51.194;5.112;2023-04-28T14:53:35;16.00;99.90
49829;DHT22;35723;51.194;5.112;2023-04-28T14:56:02;16.00;99.90
49829;DHT22;35723;51.194;5.112;2023-04-28T14:58:28;16.00;99.90
49829;DHT22;35723;51.194;5.112;2023-04-28T15:00:54;16.00;99.90
49829;DHT22;35723;51.194;5.112;2023-04-28T15:03:19;16.00;99.90
49829;DHT22;35723;51.194;5.112;2023-04-28T15:05:45;16.00;99.90
49829;DHT22;35723;51.194;5.112;2023-04-28T15:08:11;16.10;99.90
49829;DHT22;35723;51.194;5.112;2023-04-28T15:10:37;16.00;99.90
49829;DHT22;35723;51.194;5.112;2023-04-28T15:13:04;16.10;99.90
49829;DHT22;35723;51.194;5.112;2023-04-28T15:15:30;16.00;99.90
49829;DHT22;35723;51.194;5.112;2023-04-28T15:17:56;16.00;99.90
49829;DHT22;35723;51.194;5.112;2023-04-28T15:20:29;16.00;99.90
49829;DHT22;35723;51.194;5.112;2023-04-28T15:22:55;16.10;99.90
49829;DHT22;35723;51.194;5.112;2023-04-28T15:25:21;16.00;99.90
49829;DHT22;35723;51.194;5.112;2023-04-28T15:27:47;16.10;99.90
49829;DHT22;35723;51.194;5.112;2023-04-28T15:30:15;16.10;99.90
49829;DHT22;35723;51.194;5.112;2023-04-28T15:32:40;16.10;99.90
49829;DHT22;35723;51.194;5.112;2023-04-28T15:35:07;16.20;99.90
49829;DHT22;35723;51.194;5.112;2023-04-28T15:40:01;16.20;99.90
49829;DHT22;35723;51.194;5.112;2023-04-28T15:42:28;16.20;99.90
49829;DHT22;35723;51.194;5.112;2023-04-28T15:44:53;16.30;99.90
49829;DHT22;35723;51.194;5.112;2023-04-28T15:47:19;16.30;99.90
49829;DHT22;35723;51.194;5.112;2023-04-28T15:49:45;16.40;99.90
49829;DHT22;35723;51.194;5.112;2023-04-28T15:52:11;16.30;99.90
49829;DHT22;35723;51.194;5.112;2023-04-28T15:54:37;16.30;99.90
49829;DHT22;35723;51.194;5.112;2023-04-28T15:57:04;16.30;99.90
49829;DHT22;35723;51.194;5.112;2023-04-28T15:59:30;16.30;99.90
49829;DHT22;35723;51.194;5.112;2023-04-28T16:01:57;16.10;99.90
49829;DHT22;35723;51.194;5.112;2023-04-28T16:04:22;16.10;99.90
49829;DHT22;35723;51.194;5.112;2023-04-28T16:06:48;16.00;99.90
49829;DHT22;35723;51.194;5.112;2023-04-28T16:09:16;16.00;99.90